Time;durP1;ratioP1;P1;durP2;ratioP2;P2;SDS_P1;SDS_P2;PMS_P1;PMS_P2;Temp;Humidity;BMP_temperature;BMP_pressure;BME280_temperature;BME280_humidity;BME280_pressure;Samples;Min_cycle;Max_cycle;Signal;HPM_P1;HPM_P2
2021/11/30 00:02:00;;;;;;;12.37;4.67;;;;;;;;;;5054928;28;20420;-86
2021/11/30 00:04:29;;;;;;;16.57;5.20;;;;;;;;;;5054638;28;20017;-87
2021/11/30 00:06:55;;;;;;;9.80;4.33;;;;;;;;;;5054957;28;20046;-87
2021/11/30 00:11:59;;;;;;;12.10;4.40;;;;;;;;;;5059774;28;20099;-88
2021/11/30 00:14:24;;;;;;;11.60;4.37;;;;;;;;;;5054330;28;20048;-88
2021/11/30 00:16:49;;;;;;;15.80;4.60;;;;;;;;;;5054397;28;20024;-88
2021/11/30 00:19:15;;;;;;;14.33;4.33;;;;;;;;;;5054618;28;20376;-88
2021/11/30 00:21:40;;;;;;;13.77;4.07;;;;;;;;;;5054689;28;20021;-88
2021/11/30 00:24:06;;;;;;;12.47;4.30;;;;;;;;;;5072764;28;20024;-88
2021/11/30 00:26:31;;;;;;;14.20;4.50;;;;;;;;;;5054403;28;20117;-87
2021/11/30 00:28:56;;;;;;;12.00;4.00;;;;;;;;;;5054371;28;20103;-88
2021/11/30 00:31:21;;;;;;;12.20;3.77;;;;;;;;;;5054511;28;20013;-88
2021/11/30 00:33:47;;;;;;;11.77;4.20;;;;;;;;;;5074993;28;20009;-87
2021/11/30 00:36:12;;;;;;;8.87;3.67;;;;;;;;;;5057958;28;20043;-88
2021/11/30 00:38:37;;;;;;;10.87;4.00;;;;;;;;;;5057912;28;20448;-88
2021/11/30 00:41:02;;;;;;;10.50;2.70;;;;;;;;;;5057885;28;20036;-88
2021/11/30 00:43:33;;;;;;;9.87;3.80;;;;;;;;;;5058152;28;20024;-89
2021/11/30 00:46:01;;;;;;;11.00;3.83;;;;;;;;;;5075528;28;20027;-88
2021/11/30 00:48:30;;;;;;;8.53;3.27;;;;;;;;;;5057772;28;20107;-89
2021/11/30 00:50:57;;;;;;;9.13;3.07;;;;;;;;;;5076051;28;20440;-88
2021/11/30 00:53:22;;;;;;;14.40;3.63;;;;;;;;;;5057493;28;20031;-88
2021/11/30 00:55:48;;;;;;;7.47;2.70;;;;;;;;;;5075700;28;20020;-89
2021/11/30 00:58:13;;;;;;;12.57;2.90;;;;;;;;;;5057550;28;20048;-89
2021/11/30 01:00:39;;;;;;;7.87;2.93;;;;;;;;;;5057651;28;20055;-89
2021/11/30 01:03:05;;;;;;;11.87;2.77;;;;;;;;;;5057111;28;20035;-88
2021/11/30 01:05:31;;;;;;;8.97;2.73;;;;;;;;;;5057596;28;20028;-89
2021/11/30 01:07:56;;;;;;;10.03;2.80;;;;;;;;;;5057206;28;20518;-89
2021/11/30 01:10:21;;;;;;;14.07;3.03;;;;;;;;;;5057408;28;20484;-89
2021/11/30 01:12:47;;;;;;;12.90;2.90;;;;;;;;;;5057294;28;20024;-89
2021/11/30 01:15:14;;;;;;;8.27;2.60;;;;;;;;;;5057229;28;20048;-89
2021/11/30 01:17:39;;;;;;;5.53;2.50;;;;;;;;;;5056892;28;20591;-88
2021/11/30 01:20:05;;;;;;;6.47;2.37;;;;;;;;;;5074580;28;20103;-89
2021/11/30 01:22:31;;;;;;;9.17;2.90;;;;;;;;;;5057513;28;20115;-89
2021/11/30 01:24:56;;;;;;;6.93;2.17;;;;;;;;;;5057388;28;20052;-89
2021/11/30 01:27:21;;;;;;;7.63;2.47;;;;;;;;;;5057284;28;20020;-89
2021/11/30 01:29:46;;;;;;;8.23;2.50;;;;;;;;;;5056982;28;20134;-89
2021/11/30 01:32:11;;;;;;;8.60;1.80;;;;;;;;;;5057061;28;20012;-88
2021/11/30 01:34:37;;;;;;;10.00;2.33;;;;;;;;;;5056492;28;20031;-89
2021/11/30 01:37:02;;;;;;;7.77;2.60;;;;;;;;;;5057043;28;20383;-89
2021/11/30 01:39:27;;;;;;;7.40;2.27;;;;;;;;;;5057084;28;20476;-89
2021/11/30 01:41:54;;;;;;;5.60;2.30;;;;;;;;;;5057258;28;20499;-89
2021/11/30 01:44:47;;;;;;;6.13;2.10;;;;;;;;;;5056614;28;20039;-88
2021/11/30 01:47:12;;;;;;;10.33;2.93;;;;;;;;;;5073685;28;20020;-89
2021/11/30 01:49:37;;;;;;;6.67;2.63;;;;;;;;;;5056590;28;20468;-89
2021/11/30 01:52:04;;;;;;;8.67;2.70;;;;;;;;;;5056348;28;20055;-88
2021/11/30 01:54:29;;;;;;;4.67;2.30;;;;;;;;;;5056375;28;20461;-89
2021/11/30 01:56:54;;;;;;;6.10;3.00;;;;;;;;;;5074628;28;20012;-89
2021/11/30 01:59:19;;;;;;;6.30;2.40;;;;;;;;;;5056424;28;20056;-87
2021/11/30 02:01:45;;;;;;;7.57;3.00;;;;;;;;;;5056468;28;20017;-88
2021/11/30 02:04:10;;;;;;;6.23;2.67;;;;;;;;;;5056544;28;20430;-88
2021/11/30 02:06:35;;;;;;;6.53;2.47;;;;;;;;;;5073608;28;20415;-88
2021/11/30 02:09:01;;;;;;;4.77;2.70;;;;;;;;;;5074129;28;20028;-88
2021/11/30 02:11:26;;;;;;;6.77;2.63;;;;;;;;;;5056120;28;20460;-88
2021/11/30 02:13:52;;;;;;;7.57;2.67;;;;;;;;;;5069381;28;20016;-88
2021/11/30 02:16:20;;;;;;;5.27;3.20;;;;;;;;;;5061915;28;20023;-87
2021/11/30 02:18:46;;;;;;;9.77;3.53;;;;;;;;;;5076064;28;20035;-88
2021/11/30 02:21:12;;;;;;;7.23;3.20;;;;;;;;;;5069018;28;20018;-88
2021/11/30 02:23:46;;;;;;;9.53;3.03;;;;;;;;;;5073303;28;20108;-88
2021/11/30 02:26:12;;;;;;;7.57;3.07;;;;;;;;;;5075883;28;20107;-88
2021/11/30 02:28:41;;;;;;;10.07;3.40;;;;;;;;;;5082302;28;20437;-88
2021/11/30 02:31:08;;;;;;;7.73;3.53;;;;;;;;;;5072793;28;20016;-88
2021/11/30 02:33:33;;;;;;;6.23;3.27;;;;;;;;;;5076054;28;20020;-89
2021/11/30 02:35:58;;;;;;;7.23;3.50;;;;;;;;;;5075762;28;20371;-88
2021/11/30 02:38:24;;;;;;;8.70;3.50;;;;;;;;;;5074172;28;20020;-88
2021/11/30 02:40:49;;;;;;;10.17;3.73;;;;;;;;;;5063093;28;20012;-88
2021/11/30 02:43:14;;;;;;;7.67;3.47;;;;;;;;;;5074360;28;20144;-88
2021/11/30 02:45:40;;;;;;;6.20;3.37;;;;;;;;;;5093642;28;20055;-88
2021/11/30 02:48:07;;;;;;;6.17;3.33;;;;;;;;;;5075508;28;20020;-88
2021/11/30 02:50:39;;;;;;;9.77;3.30;;;;;;;;;;5075239;28;20047;-88
2021/11/30 02:53:05;;;;;;;10.40;3.45;;;;;;;;;;5075254;28;20024;-88
2021/11/30 02:55:30;;;;;;;9.90;3.87;;;;;;;;;;5072557;28;20023;-88
2021/11/30 02:57:55;;;;;;;9.33;3.57;;;;;;;;;;5075574;28;20016;-88
2021/11/30 03:00:20;;;;;;;10.03;3.77;;;;;;;;;;5075262;28;20031;-88
2021/11/30 03:02:46;;;;;;;7.67;4.33;;;;;;;;;;5075195;28;20035;-88
2021/11/30 03:05:11;;;;;;;11.53;3.80;;;;;;;;;;5075359;28;20485;-88
2021/11/30 03:07:38;;;;;;;9.60;4.70;;;;;;;;;;5093634;28;20391;-88
2021/11/30 03:10:24;;;;;;;8.97;4.20;;;;;;;;;;5075353;28;20032;-88
2021/11/30 03:12:49;;;;;;;9.30;3.83;;;;;;;;;;5055634;28;20503;-89
2021/11/30 03:15:16;;;;;;;9.40;4.67;;;;;;;;;;5088920;28;20023;-88
2021/11/30 03:17:42;;;;;;;13.30;4.63;;;;;;;;;;5070522;28;20028;-88
2021/11/30 03:20:10;;;;;;;13.57;5.00;;;;;;;;;;5075277;28;20024;-89
2021/11/30 03:22:35;;;;;;;9.30;4.30;;;;;;;;;;5060992;28;20051;-88
2021/11/30 03:25:00;;;;;;;9.33;4.23;;;;;;;;;;5075196;28;20083;-88
2021/11/30 03:27:25;;;;;;;13.60;5.67;;;;;;;;;;5093154;28;20466;-88
2021/11/30 03:29:53;;;;;;;13.80;5.70;;;;;;;;;;5075206;28;20475;-88
2021/11/30 03:34:59;;;;;;;11.90;5.40;;;;;;;;;;5080380;28;20376;-89
2021/11/30 03:37:24;;;;;;;13.43;5.63;;;;;;;;;;5075020;28;20460;-88
2021/11/30 03:39:51;;;;;;;10.63;5.20;;;;;;;;;;5067879;28;20028;-89
2021/11/30 03:42:17;;;;;;;11.50;6.60;;;;;;;;;;5101912;28;20032;-89
2021/11/30 03:44:42;;;;;;;8.70;4.90;;;;;;;;;;5074671;28;20016;-89
2021/11/30 03:47:07;;;;;;;9.10;5.47;;;;;;;;;;5074969;28;20034;-89
2021/11/30 03:49:32;;;;;;;11.03;6.10;;;;;;;;;;5069448;28;20032;-88
2021/11/30 03:51:58;;;;;;;11.03;5.50;;;;;;;;;;5074887;28;20107;-88
2021/11/30 03:54:23;;;;;;;8.03;6.00;;;;;;;;;;5074860;28;20058;-88
2021/11/30 03:56:49;;;;;;;9.03;6.37;;;;;;;;;;5074774;28;20023;-88
2021/11/30 03:59:14;;;;;;;10.80;6.47;;;;;;;;;;5075081;28;20077;-88
2021/11/30 04:01:39;;;;;;;10.53;5.53;;;;;;;;;;5092848;28;20475;-89
2021/11/30 04:04:24;;;;;;;9.00;6.00;;;;;;;;;;5070374;28;20395;-89
2021/11/30 04:06:51;;;;;;;10.70;6.30;;;;;;;;;;5054674;28;20025;-88
2021/11/30 04:09:16;;;;;;;12.30;6.70;;;;;;;;;;5069813;28;20471;-88
2021/11/30 04:11:42;;;;;;;11.87;6.23;;;;;;;;;;5096652;28;20024;-88
2021/11/30 04:14:07;;;;;;;12.77;5.60;;;;;;;;;;5078663;28;20069;-89
2021/11/30 04:16:33;;;;;;;15.83;6.20;;;;;;;;;;5078190;28;20031;-89
2021/11/30 04:18:59;;;;;;;12.13;7.23;;;;;;;;;;5078474;28;20024;-88
2021/11/30 04:21:24;;;;;;;12.03;7.13;;;;;;;;;;5076761;28;20032;-88
2021/11/30 04:23:50;;;;;;;11.73;6.90;;;;;;;;;;5076742;28;20058;-88
2021/11/30 04:26:16;;;;;;;11.73;7.27;;;;;;;;;;5065868;28;20070;-89
2021/11/30 04:28:43;;;;;;;11.00;6.07;;;;;;;;;;5078193;28;20024;-89
2021/11/30 04:31:08;;;;;;;13.00;7.70;;;;;;;;;;5077959;28;20027;-88
2021/11/30 04:33:33;;;;;;;10.17;7.63;;;;;;;;;;5078191;28;20016;-88
2021/11/30 04:35:59;;;;;;;10.37;7.33;;;;;;;;;;5077227;28;20009;-88
2021/11/30 04:38:24;;;;;;;11.90;8.03;;;;;;;;;;5085611;28;20367;-89
2021/11/30 04:40:50;;;;;;;12.77;7.17;;;;;;;;;;5077934;28;20039;-88
2021/11/30 04:43:15;;;;;;;11.23;8.20;;;;;;;;;;5096176;28;20019;-89
2021/11/30 04:45:53;;;;;;;18.20;7.40;;;;;;;;;;5064848;28;20526;-89
2021/11/30 04:48:19;;;;;;;11.30;8.60;;;;;;;;;;5064893;28;20031;-88
2021/11/30 04:50:47;;;;;;;13.03;7.53;;;;;;;;;;5078094;28;20024;-89
2021/11/30 04:53:13;;;;;;;11.30;7.50;;;;;;;;;;5072416;28;20020;-88
2021/11/30 04:55:38;;;;;;;11.70;7.93;;;;;;;;;;5077811;28;20115;-88
2021/11/30 04:58:04;;;;;;;11.47;7.60;;;;;;;;;;5092744;28;20407;-88
2021/11/30 05:00:30;;;;;;;13.60;8.73;;;;;;;;;;5066848;28;20065;-88
2021/11/30 05:02:55;;;;;;;14.23;8.97;;;;;;;;;;5077518;28;20016;-88
2021/11/30 05:05:21;;;;;;;13.13;7.53;;;;;;;;;;5077616;28;20441;-88
2021/11/30 05:07:47;;;;;;;12.40;7.23;;;;;;;;;;5077393;28;20472;-88
2021/11/30 05:10:17;;;;;;;16.17;7.80;;;;;;;;;;5077336;28;20035;-88
2021/11/30 05:12:43;;;;;;;12.50;8.80;;;;;;;;;;5068956;28;20047;-88
2021/11/30 05:15:09;;;;;;;12.63;7.93;;;;;;;;;;5073658;28;20032;-88
2021/11/30 05:17:34;;;;;;;13.60;8.33;;;;;;;;;;5057126;28;20017;-88
2021/11/30 05:20:00;;;;;;;12.60;7.57;;;;;;;;;;5081088;28;20025;-88
2021/11/30 05:22:26;;;;;;;12.47;8.83;;;;;;;;;;5077372;28;20133;-88
2021/11/30 05:24:51;;;;;;;13.17;8.63;;;;;;;;;;5077104;28;20028;-88
2021/11/30 05:27:16;;;;;;;11.90;8.33;;;;;;;;;;5077083;28;20020;-88
2021/11/30 05:29:42;;;;;;;11.60;8.27;;;;;;;;;;5077070;28;20388;-88
2021/11/30 05:32:07;;;;;;;14.23;8.73;;;;;;;;;;5066657;28;20025;-88
2021/11/30 05:34:32;;;;;;;14.30;9.20;;;;;;;;;;5094627;28;20026;-88
2021/11/30 05:36:57;;;;;;;11.37;7.60;;;;;;;;;;5077216;28;20020;-88
2021/11/30 05:39:23;;;;;;;11.30;7.73;;;;;;;;;;5076783;28;20111;-88
2021/11/30 05:41:48;;;;;;;14.93;8.27;;;;;;;;;;5076794;28;20023;-88
2021/11/30 05:44:13;;;;;;;12.93;8.73;;;;;;;;;;5076660;28;20028;-88
2021/11/30 05:46:39;;;;;;;12.53;8.60;;;;;;;;;;5076909;28;20462;-88
2021/11/30 05:49:04;;;;;;;12.13;8.43;;;;;;;;;;5076456;28;20016;-89
2021/11/30 05:51:29;;;;;;;12.60;8.20;;;;;;;;;;5076543;28;20016;-88
2021/11/30 05:53:55;;;;;;;11.87;8.40;;;;;;;;;;5069310;28;20016;-88
2021/11/30 05:56:20;;;;;;;12.00;8.20;;;;;;;;;;5062455;28;20012;-88
2021/11/30 05:58:46;;;;;;;13.83;8.50;;;;;;;;;;5067441;28;20023;-88
2021/11/30 06:01:27;;;;;;;10.90;7.73;;;;;;;;;;5097950;28;20028;-88
2021/11/30 06:06:20;;;;;;;12.13;7.93;;;;;;;;;;5094590;28;20518;-88
2021/11/30 06:08:45;;;;;;;11.03;7.40;;;;;;;;;;5094416;28;20031;-88
2021/11/30 06:11:10;;;;;;;12.37;8.43;;;;;;;;;;5063552;28;20024;-88
2021/11/30 06:13:36;;;;;;;10.60;7.07;;;;;;;;;;5075014;28;20409;-88
2021/11/30 06:16:01;;;;;;;13.33;8.10;;;;;;;;;;5076063;28;20490;-88
2021/11/30 06:18:26;;;;;;;12.77;6.73;;;;;;;;;;5090822;28;20371;-88
2021/11/30 06:20:51;;;;;;;12.27;8.53;;;;;;;;;;5082700;28;20066;-88
2021/11/30 06:23:17;;;;;;;11.47;8.80;;;;;;;;;;5094042;28;20415;-89
2021/11/30 06:25:42;;;;;;;9.43;5.57;;;;;;;;;;5061668;28;20020;-88
2021/11/30 06:28:07;;;;;;;13.30;8.07;;;;;;;;;;5076064;28;20363;-89
2021/11/30 06:30:33;;;;;;;11.83;6.57;;;;;;;;;;5075039;28;20027;-88
2021/11/30 06:32:58;;;;;;;17.60;8.13;;;;;;;;;;5076163;28;20012;-88
2021/11/30 06:35:23;;;;;;;14.97;7.43;;;;;;;;;;5075770;28;20073;-88
2021/11/30 06:37:48;;;;;;;14.50;7.53;;;;;;;;;;5075628;28;20099;-89
2021/11/30 06:40:13;;;;;;;11.87;8.50;;;;;;;;;;5072323;28;20051;-88
2021/11/30 06:42:40;;;;;;;12.10;8.53;;;;;;;;;;5093583;28;20384;-88
2021/11/30 06:45:05;;;;;;;13.00;7.63;;;;;;;;;;5075530;28;20020;-88
2021/11/30 06:47:32;;;;;;;12.20;8.20;;;;;;;;;;5075593;28;20028;-87
2021/11/30 06:49:57;;;;;;;13.50;8.93;;;;;;;;;;5093497;28;20401;-88
2021/11/30 06:52:22;;;;;;;13.83;7.97;;;;;;;;;;5063320;28;20012;-88
2021/11/30 06:54:51;;;;;;;13.10;8.03;;;;;;;;;;5073785;28;20475;-88
2021/11/30 06:57:16;;;;;;;18.00;9.07;;;;;;;;;;5075345;28;20012;-89
2021/11/30 06:59:42;;;;;;;13.93;8.80;;;;;;;;;;5075218;28;20031;-85
2021/11/30 07:02:10;;;;;;;13.27;7.63;;;;;;;;;;5068306;28;20043;-86
2021/11/30 07:04:40;;;;;;;12.70;10.10;;;;;;;;;;5070070;28;20032;-86
2021/11/30 07:07:20;;;;;;;14.00;7.87;;;;;;;;;;5075286;28;20016;-88
2021/11/30 07:15:05;;;;;;;16.63;9.50;;;;;;;;;;5093021;28;20034;-88
2021/11/30 07:17:31;;;;;;;16.03;9.87;;;;;;;;;;5074064;28;20028;-88
2021/11/30 07:19:57;;;;;;;15.53;8.70;;;;;;;;;;5075003;28;20028;-88
2021/11/30 07:22:22;;;;;;;14.03;9.60;;;;;;;;;;5075274;28;20016;-88
2021/11/30 07:24:47;;;;;;;14.87;9.00;;;;;;;;;;5075077;28;20020;-88
2021/11/30 07:27:12;;;;;;;13.87;9.63;;;;;;;;;;5075053;28;20024;-88
2021/11/30 07:29:38;;;;;;;14.97;10.17;;;;;;;;;;5069919;28;20035;-88
2021/11/30 07:32:03;;;;;;;13.33;7.83;;;;;;;;;;5054744;28;20391;-88
2021/11/30 07:34:29;;;;;;;14.10;9.30;;;;;;;;;;5074017;28;20029;-88
2021/11/30 07:36:54;;;;;;;16.13;8.70;;;;;;;;;;5074973;28;20064;-88
2021/11/30 07:39:20;;;;;;;13.63;7.67;;;;;;;;;;5089945;28;20527;-88
2021/11/30 07:41:45;;;;;;;15.00;9.40;;;;;;;;;;5065115;28;20024;-88
2021/11/30 07:44:10;;;;;;;13.67;10.30;;;;;;;;;;5078936;28;20414;-88
2021/11/30 07:46:37;;;;;;;12.90;8.10;;;;;;;;;;5067849;28;20035;-88
2021/11/30 07:49:02;;;;;;;13.37;7.50;;;;;;;;;;5071799;28;20448;-88
2021/11/30 07:51:28;;;;;;;12.13;7.57;;;;;;;;;;5078862;28;20043;-88
2021/11/30 07:53:53;;;;;;;12.83;8.10;;;;;;;;;;5079080;28;20024;-88
2021/11/30 07:56:18;;;;;;;10.87;6.27;;;;;;;;;;5078917;28;20023;-86
2021/11/30 07:58:43;;;;;;;11.80;6.93;;;;;;;;;;5096844;28;20493;-86
2021/11/30 08:01:10;;;;;;;11.10;7.13;;;;;;;;;;5078260;28;20535;-85
2021/11/30 08:03:35;;;;;;;11.23;7.10;;;;;;;;;;5061288;28;20099;-84
2021/11/30 08:06:00;;;;;;;13.20;7.47;;;;;;;;;;5070580;28;20054;-84
2021/11/30 08:08:26;;;;;;;11.80;7.40;;;;;;;;;;5067403;28;20382;-84
2021/11/30 08:10:51;;;;;;;11.07;6.40;;;;;;;;;;5066163;28;20519;-87
2021/11/30 08:13:16;;;;;;;8.80;6.27;;;;;;;;;;5067419;28;20038;-85
2021/11/30 08:15:41;;;;;;;11.63;6.77;;;;;;;;;;5065502;28;20040;-84
2021/11/30 08:18:10;;;;;;;9.10;6.07;;;;;;;;;;5075363;28;20025;-84
2021/11/30 08:20:35;;;;;;;9.23;6.00;;;;;;;;;;5082661;28;20411;-85
2021/11/30 08:23:00;;;;;;;11.87;6.23;;;;;;;;;;5063165;28;20032;-85
2021/11/30 08:25:25;;;;;;;9.27;6.30;;;;;;;;;;5057968;28;20024;-85
2021/11/30 08:27:52;;;;;;;7.47;6.63;;;;;;;;;;5063620;28;20035;-86
2021/11/30 08:30:17;;;;;;;9.10;5.73;;;;;;;;;;5076634;28;20407;-86
2021/11/30 08:32:43;;;;;;;9.03;5.53;;;;;;;;;;5058265;28;20028;-86
2021/11/30 08:35:09;;;;;;;8.03;6.23;;;;;;;;;;5066005;28;20102;-85
2021/11/30 08:37:34;;;;;;;11.97;5.60;;;;;;;;;;5067203;28;20024;-86
2021/11/30 08:39:59;;;;;;;8.60;6.07;;;;;;;;;;5057812;28;20056;-85
2021/11/30 08:42:25;;;;;;;7.90;4.93;;;;;;;;;;5071335;28;20383;-84
2021/11/30 08:44:50;;;;;;;10.47;6.23;;;;;;;;;;5072598;28;20052;-85
2021/11/30 08:47:17;;;;;;;8.83;6.60;;;;;;;;;;5079980;28;20022;-85
2021/11/30 08:49:42;;;;;;;12.77;7.00;;;;;;;;;;5075412;28;20485;-85
2021/11/30 08:52:10;;;;;;;8.73;4.67;;;;;;;;;;5066846;28;20020;-85
2021/11/30 08:54:35;;;;;;;10.30;5.67;;;;;;;;;;5078366;28;20078;-86
2021/11/30 08:57:02;;;;;;;11.63;8.40;;;;;;;;;;5064324;28;20485;-85
2021/11/30 08:59:34;;;;;;;10.90;5.73;;;;;;;;;;5060570;28;20036;-85
2021/11/30 09:02:00;;;;;;;11.87;5.97;;;;;;;;;;5072680;28;20516;-85
2021/11/30 09:04:25;;;;;;;11.37;5.90;;;;;;;;;;5076867;28;20035;-85
2021/11/30 09:06:50;;;;;;;11.50;6.67;;;;;;;;;;5077032;28;20047;-85
2021/11/30 09:09:16;;;;;;;12.90;7.10;;;;;;;;;;5076757;28;20042;-85
2021/11/30 09:11:44;;;;;;;11.13;6.90;;;;;;;;;;5076675;28;20471;-85
2021/11/30 09:14:09;;;;;;;13.43;8.57;;;;;;;;;;5089782;28;20012;-84
2021/11/30 09:16:35;;;;;;;11.50;8.23;;;;;;;;;;5059752;28;20016;-84
2021/11/30 09:19:00;;;;;;;14.17;8.20;;;;;;;;;;5076848;28;20016;-85
2021/11/30 09:21:26;;;;;;;16.60;7.40;;;;;;;;;;5095005;28;20517;-84
2021/11/30 09:23:52;;;;;;;16.70;8.40;;;;;;;;;;5088064;28;20020;-84
2021/11/30 09:26:17;;;;;;;14.87;9.30;;;;;;;;;;5076662;28;20024;-84
2021/11/30 09:28:42;;;;;;;14.17;8.27;;;;;;;;;;5064750;28;20495;-84
2021/11/30 09:31:08;;;;;;;16.60;8.70;;;;;;;;;;5063888;28;20028;-84
2021/11/30 09:33:34;;;;;;;14.13;8.23;;;;;;;;;;5056218;28;20565;-85
2021/11/30 09:35:59;;;;;;;14.93;10.37;;;;;;;;;;5071264;28;20016;-84
2021/11/30 09:38:25;;;;;;;14.67;10.13;;;;;;;;;;5055709;28;20468;-84
2021/11/30 09:40:55;;;;;;;18.97;11.23;;;;;;;;;;5062527;28;20054;-84
2021/11/30 09:43:20;;;;;;;15.87;8.93;;;;;;;;;;5066858;28;20051;-85
2021/11/30 09:45:46;;;;;;;17.07;9.03;;;;;;;;;;5094715;28;20503;-85
2021/11/30 09:48:14;;;;;;;15.40;9.77;;;;;;;;;;5075427;28;20020;-85
2021/11/30 09:50:41;;;;;;;19.77;9.30;;;;;;;;;;5075085;28;20023;-85
2021/11/30 09:53:06;;;;;;;15.90;8.73;;;;;;;;;;5075026;28;20133;-85
2021/11/30 09:55:32;;;;;;;14.90;9.60;;;;;;;;;;5074814;28;20081;-85
2021/11/30 09:57:57;;;;;;;19.40;9.63;;;;;;;;;;5075071;28;20035;-85
2021/11/30 10:00:23;;;;;;;20.20;13.60;;;;;;;;;;5074804;28;20032;-85
2021/11/30 10:02:49;;;;;;;18.27;11.00;;;;;;;;;;5074619;28;20415;-85
2021/11/30 10:05:14;;;;;;;21.50;12.70;;;;;;;;;;5074589;28;20028;-85
2021/11/30 10:07:39;;;;;;;22.70;12.63;;;;;;;;;;5074590;28;20032;-85
2021/11/30 10:10:12;;;;;;;21.33;11.57;;;;;;;;;;5074298;28;20016;-84
2021/11/30 10:12:38;;;;;;;24.60;12.07;;;;;;;;;;5074617;28;20020;-85
2021/11/30 10:15:07;;;;;;;23.50;13.17;;;;;;;;;;5074005;28;20031;-85
2021/11/30 10:17:34;;;;;;;21.77;12.87;;;;;;;;;;5074532;28;20048;-85
2021/11/30 10:20:01;;;;;;;23.83;11.00;;;;;;;;;;5074549;28;20115;-84
2021/11/30 10:22:41;;;;;;;20.77;12.20;;;;;;;;;;5074186;28;20106;-84
2021/11/30 10:25:09;;;;;;;20.67;11.27;;;;;;;;;;5073833;28;20077;-85
2021/11/30 10:27:34;;;;;;;21.50;14.80;;;;;;;;;;5092291;28;20020;-85
2021/11/30 10:30:08;;;;;;;20.20;12.57;;;;;;;;;;5074024;28;20024;-85
2021/11/30 10:32:34;;;;;;;25.13;12.53;;;;;;;;;;5074304;28;20398;-85
2021/11/30 10:34:59;;;;;;;25.37;12.10;;;;;;;;;;5073823;28;20016;-85
2021/11/30 10:37:25;;;;;;;20.47;12.50;;;;;;;;;;5074049;28;20085;-85
2021/11/30 10:39:50;;;;;;;20.10;11.23;;;;;;;;;;5074459;28;20099;-85
2021/11/30 10:42:20;;;;;;;19.77;11.57;;;;;;;;;;5092517;28;20019;-85
2021/11/30 10:44:46;;;;;;;23.93;10.70;;;;;;;;;;5091665;28;20008;-85
2021/11/30 10:47:16;;;;;;;23.33;10.37;;;;;;;;;;5074042;28;20051;-85
2021/11/30 10:49:47;;;;;;;19.00;10.80;;;;;;;;;;5073954;28;20016;-84
2021/11/30 10:52:17;;;;;;;24.23;12.33;;;;;;;;;;5074215;28;20099;-85
2021/11/30 10:54:42;;;;;;;19.03;9.37;;;;;;;;;;5091568;28;20131;-85
2021/11/30 10:57:08;;;;;;;19.63;11.17;;;;;;;;;;5073660;28;20123;-85
2021/11/30 10:59:33;;;;;;;17.73;9.40;;;;;;;;;;5073663;28;20020;-85
2021/11/30 11:01:58;;;;;;;20.97;11.57;;;;;;;;;;5074116;28;20054;-84
2021/11/30 11:04:33;;;;;;;18.00;9.47;;;;;;;;;;5073486;28;20047;-85
2021/11/30 11:07:11;;;;;;;16.17;11.07;;;;;;;;;;5073592;28;20040;-85
2021/11/30 11:09:47;;;;;;;23.17;11.57;;;;;;;;;;5073476;28;20032;-84
2021/11/30 11:12:25;;;;;;;20.47;11.93;;;;;;;;;;5073773;28;20069;-85
2021/11/30 11:14:51;;;;;;;20.20;10.47;;;;;;;;;;5079318;28;20024;-84
2021/11/30 11:17:30;;;;;;;16.70;9.33;;;;;;;;;;5060326;28;20464;-85
2021/11/30 11:19:56;;;;;;;16.60;9.03;;;;;;;;;;5055789;28;20025;-85
2021/11/30 11:22:23;;;;;;;18.00;10.70;;;;;;;;;;5060231;28;20032;-85
2021/11/30 11:24:50;;;;;;;19.47;10.97;;;;;;;;;;5063424;28;20054;-85
2021/11/30 11:27:16;;;;;;;20.93;10.00;;;;;;;;;;5059948;28;20020;-85
2021/11/30 11:29:43;;;;;;;14.27;9.03;;;;;;;;;;5059518;28;20037;-85
2021/11/30 11:32:08;;;;;;;18.00;10.97;;;;;;;;;;5068534;28;20020;-85
2021/11/30 11:34:35;;;;;;;18.10;9.37;;;;;;;;;;5074808;28;20056;-85
2021/11/30 11:37:03;;;;;;;14.40;9.80;;;;;;;;;;5061053;28;20020;-85
2021/11/30 11:39:29;;;;;;;17.10;11.20;;;;;;;;;;5072655;28;20364;-85
2021/11/30 11:41:58;;;;;;;16.10;10.43;;;;;;;;;;5089232;28;20111;-85
2021/11/30 11:44:24;;;;;;;19.80;11.60;;;;;;;;;;5054441;28;20033;-85
2021/11/30 11:46:54;;;;;;;14.43;9.40;;;;;;;;;;5057805;28;20037;-85
2021/11/30 11:49:28;;;;;;;14.47;10.97;;;;;;;;;;5041669;28;20041;-86
2021/11/30 11:51:55;;;;;;;24.37;10.87;;;;;;;;;;5087316;28;20027;-84
2021/11/30 11:54:29;;;;;;;17.90;10.87;;;;;;;;;;5056179;28;20391;-85
2021/11/30 11:57:03;;;;;;;19.57;11.30;;;;;;;;;;5082514;28;20047;-85
2021/11/30 11:59:48;;;;;;;19.13;11.60;;;;;;;;;;5086312;28;20024;-85
2021/11/30 12:02:21;;;;;;;20.13;9.17;;;;;;;;;;5064091;28;20093;-85
2021/11/30 12:04:51;;;;;;;18.03;10.47;;;;;;;;;;5059666;28;20113;-85
2021/11/30 12:07:16;;;;;;;18.93;11.87;;;;;;;;;;5074428;28;20016;-85
2021/11/30 12:09:41;;;;;;;16.97;10.37;;;;;;;;;;5063599;28;20059;-85
2021/11/30 12:12:25;;;;;;;16.63;12.33;;;;;;;;;;5066763;28;20028;-85
2021/11/30 12:14:51;;;;;;;24.17;10.53;;;;;;;;;;5069444;28;20543;-85
2021/11/30 12:17:26;;;;;;;16.23;11.63;;;;;;;;;;5070350;28;20364;-85
2021/11/30 12:20:01;;;;;;;18.93;11.00;;;;;;;;;;5059510;28;20024;-85
2021/11/30 12:22:46;;;;;;;20.07;11.07;;;;;;;;;;5074179;28;20013;-85
2021/11/30 12:25:27;;;;;;;18.63;9.73;;;;;;;;;;5057337;28;20073;-85
2021/11/30 12:27:53;;;;;;;18.43;11.00;;;;;;;;;;5053383;28;20027;-85
2021/11/30 12:30:36;;;;;;;19.53;11.90;;;;;;;;;;5059946;28;20021;-85
2021/11/30 12:33:02;;;;;;;23.13;11.83;;;;;;;;;;5069890;28;20044;-85
2021/11/30 12:35:40;;;;;;;22.57;12.73;;;;;;;;;;5056794;28;20460;-85
2021/11/30 12:38:16;;;;;;;22.50;10.10;;;;;;;;;;5051510;28;20012;-85
2021/11/30 12:40:43;;;;;;;19.17;11.37;;;;;;;;;;5068017;28;20111;-86
2021/11/30 12:43:12;;;;;;;20.00;10.63;;;;;;;;;;5071962;28;20021;-87
2021/11/30 12:45:47;;;;;;;18.57;11.83;;;;;;;;;;5057954;28;20028;-88
2021/11/30 12:48:13;;;;;;;18.57;10.70;;;;;;;;;;5050228;28;20012;-87
2021/11/30 12:50:38;;;;;;;15.27;9.20;;;;;;;;;;5072424;28;20047;-87
2021/11/30 12:53:04;;;;;;;21.87;11.70;;;;;;;;;;5090043;28;20460;-88
2021/11/30 12:55:42;;;;;;;22.80;11.97;;;;;;;;;;5068055;28;20027;-87
2021/11/30 12:58:07;;;;;;;21.97;11.77;;;;;;;;;;5074278;28;20013;-88
2021/11/30 13:00:32;;;;;;;16.23;12.40;;;;;;;;;;5057660;28;20033;-87
2021/11/30 13:03:18;;;;;;;20.27;11.03;;;;;;;;;;5069758;28;20111;-87
2021/11/30 13:05:53;;;;;;;22.00;12.47;;;;;;;;;;5095842;28;20058;-87
2021/11/30 13:08:18;;;;;;;20.60;11.87;;;;;;;;;;5077500;28;20074;-87
2021/11/30 13:10:47;;;;;;;19.97;11.67;;;;;;;;;;5069681;28;20477;-87
2021/11/30 13:13:13;;;;;;;18.43;12.13;;;;;;;;;;5069413;28;20379;-86
2021/11/30 13:15:42;;;;;;;21.17;12.67;;;;;;;;;;5096409;28;20020;-87
2021/11/30 13:18:07;;;;;;;18.67;11.60;;;;;;;;;;5089929;28;20440;-86
2021/11/30 13:20:32;;;;;;;19.13;10.10;;;;;;;;;;5072914;28;20048;-87
2021/11/30 13:22:58;;;;;;;20.33;12.43;;;;;;;;;;5077493;28;20062;-87
2021/11/30 13:25:25;;;;;;;16.57;11.73;;;;;;;;;;5095435;28;20028;-86
2021/11/30 13:27:55;;;;;;;17.30;11.53;;;;;;;;;;5077520;28;20380;-87
2021/11/30 13:30:21;;;;;;;16.13;10.37;;;;;;;;;;5075373;28;20111;-87
2021/11/30 13:32:52;;;;;;;17.67;10.10;;;;;;;;;;5060476;28;20069;-86
2021/11/30 13:35:25;;;;;;;16.97;11.23;;;;;;;;;;5077152;28;20061;-87
2021/11/30 13:37:53;;;;;;;17.67;10.53;;;;;;;;;;5063251;28;20016;-87
2021/11/30 13:40:34;;;;;;;16.97;8.63;;;;;;;;;;5076746;28;20539;-87
2021/11/30 13:43:01;;;;;;;15.27;9.20;;;;;;;;;;5058878;28;20028;-87
2021/11/30 13:45:26;;;;;;;12.23;7.93;;;;;;;;;;5068212;28;20129;-87
2021/11/30 13:47:52;;;;;;;14.47;9.30;;;;;;;;;;5076944;28;20024;-86
2021/11/30 13:50:18;;;;;;;13.83;9.87;;;;;;;;;;5094915;28;20459;-86
2021/11/30 13:52:44;;;;;;;15.40;9.47;;;;;;;;;;5072870;28;20637;-86
2021/11/30 13:55:10;;;;;;;16.67;8.83;;;;;;;;;;5074282;28;20111;-86
2021/11/30 13:57:35;;;;;;;14.70;9.43;;;;;;;;;;5063344;28;20376;-88
2021/11/30 14:00:02;;;;;;;16.07;9.60;;;;;;;;;;5066656;28;20013;-86
2021/11/30 14:02:35;;;;;;;14.90;9.33;;;;;;;;;;5068069;28;20032;-88
2021/11/30 14:05:00;;;;;;;;;;;;;;;;;;5064313;28;20031;-86
2021/11/30 14:07:25;;;;;;;12.80;9.20;;;;;;;;;;5075978;28;20372;-85
2021/11/30 14:09:51;;;;;;;14.57;8.80;;;;;;;;;;5093398;28;20016;-85
2021/11/30 14:12:18;;;;;;;12.68;8.07;;;;;;;;;;5062728;28;20371;-85
2021/11/30 14:14:44;;;;;;;12.83;7.83;;;;;;;;;;5086555;28;20035;-85
2021/11/30 14:17:16;;;;;;;12.50;8.23;;;;;;;;;;5063795;28;20348;-85
2021/11/30 14:19:42;;;;;;;13.00;8.73;;;;;;;;;;5058052;28;20033;-85
2021/11/30 14:22:31;;;;;;;13.47;8.13;;;;;;;;;;5074705;28;20256;-85
2021/11/30 14:24:56;;;;;;;13.63;6.93;;;;;;;;;;5056657;28;20070;-85
2021/11/30 14:27:39;;;;;;;10.07;5.85;;;;;;;;;;5075651;28;20039;-85
2021/11/30 14:30:30;;;;;;;13.80;8.20;;;;;;;;;;5093193;28;20032;-85
2021/11/30 14:33:00;;;;;;;11.90;7.87;;;;;;;;;;5071716;28;20081;-85
2021/11/30 14:35:26;;;;;;;14.38;7.55;;;;;;;;;;5093725;28;20015;-85
2021/11/30 14:37:54;;;;;;;12.90;9.63;;;;;;;;;;5093016;28;20478;-85
2021/11/30 14:40:20;;;;;;;13.85;8.45;;;;;;;;;;5075596;28;20126;-85
2021/11/30 14:43:01;;;;;;;15.02;8.90;;;;;;;;;;5075555;28;20019;-85
2021/11/30 14:45:43;;;;;;;11.43;7.47;;;;;;;;;;5069976;28;20036;-85